»·PEaware :: N698SP KBFL-KMHV

N698SP :: KBFL-KMHV

FLIGHT INFORMATION

Flight Status: Arrived
Operator: Privately registered:
United States
More flights under this callsign
Pilot: Dominik G. (31997)
Aircraft: CESSNA 172 SKYHAWK
(C172)
More flights by this aircraft type
Origin: KBFL Meadows
United States
Destination: KMHV Mojave
United States
More flights between these airports :: More routes between these airports
Route:
File this flight plan on PilotEdge
Remarks:
Altitude:
(Current/Filed)
7,500ft
Speed:
(Current/Filed)
104kts
Departed: 30-Dec-20 06:09 PM
Arrived: 30-Dec-20 06:43 PM
Distance/Time
Traveled:
50nm/0:34
Distance/Time
To Go:
Arrived

Flight Plot

Page will automatically refresh every two minutes.


Map Options




Map Legend


Flown Route
Filed Route
Departure Airport
Arrival Airport
Navaid (VOR, NDB)
Fix

Horizontal Profiles

Position Reports

Time Latitude Longitude Heading Altitude Ground
Speed
30-Dec-20 17:54 35.429806 -119.046408 341 501ft 0kts
30-Dec-20 17:55 35.429806 -119.046408 341 501ft 0kts
30-Dec-20 17:56 35.429806 -119.046408 341 501ft 0kts
30-Dec-20 17:57 35.429806 -119.046408 341 501ft 0kts
30-Dec-20 17:58 35.429806 -119.046408 341 501ft 0kts
30-Dec-20 17:59 35.429806 -119.046408 341 501ft 0kts
30-Dec-20 18:00 35.429806 -119.046408 341 501ft 0kts
30-Dec-20 18:01 35.429806 -119.046408 341 501ft 0kts
30-Dec-20 18:02 35.429818 -119.046413 339 501ft 0kts
30-Dec-20 18:03 35.429409 -119.047670 225 496ft 0kts
30-Dec-20 18:03 35.427570 -119.046349 134 490ft 22kts
30-Dec-20 18:04 35.425774 -119.045070 225 483ft 0kts
30-Dec-20 18:05 35.425774 -119.045070 225 483ft 0kts
30-Dec-20 18:06 35.425774 -119.045070 225 483ft 0kts
30-Dec-20 18:07 35.425506 -119.046091 308 480ft 20kts
30-Dec-20 18:08 35.440203 -119.060326 323 1355ft 75kts
30-Dec-20 18:09 35.446503 -119.050876 141 2345ft 89kts
30-Dec-20 18:10 35.427633 -119.032237 148 3367ft 89kts
30-Dec-20 18:11 35.407336 -119.013076 143 4366ft 96kts
30-Dec-20 18:12 35.392504 -118.984741 119 5344ft 101kts
30-Dec-20 18:13 35.376566 -118.955812 124 6256ft 104kts
30-Dec-20 18:15 35.359741 -118.919665 112 7262ft 106kts
30-Dec-20 18:15 35.349719 -118.890536 114 7548ft 114kts
30-Dec-20 18:16 35.336041 -118.856591 116 7558ft 107kts
30-Dec-20 18:17 35.322982 -118.823733 116 7562ft 106kts
30-Dec-20 18:18 35.309959 -118.791130 116 7565ft 106kts
30-Dec-20 18:19 35.296747 -118.758342 116 7569ft 108kts
30-Dec-20 18:20 35.283191 -118.725090 116 7574ft 109kts
30-Dec-20 18:21 35.269266 -118.691417 116 7579ft 110kts
30-Dec-20 18:22 35.255211 -118.657980 116 7583ft 111kts
30-Dec-20 18:23 35.240314 -118.624816 121 7590ft 111kts
30-Dec-20 18:24 35.222298 -118.593691 124 7597ft 112kts
30-Dec-20 18:25 35.203850 -118.562836 124 7606ft 112kts
30-Dec-20 18:26 35.185007 -118.532228 124 7615ft 110kts
30-Dec-20 18:27 35.166400 -118.502364 124 7620ft 109kts
30-Dec-20 18:28 35.149107 -118.471890 115 7626ft 108kts
30-Dec-20 18:29 35.134524 -118.439596 115 7633ft 108kts
30-Dec-20 18:30 35.123784 -118.405442 103 7639ft 107kts
30-Dec-20 18:31 35.114700 -118.370612 103 7647ft 107kts
30-Dec-20 18:32 35.105709 -118.337375 108 7478ft 103kts
30-Dec-20 18:33 35.091717 -118.306847 122 6803ft 104kts
30-Dec-20 18:34 35.076389 -118.276834 117 6156ft 103kts
30-Dec-20 18:35 35.067797 -118.243701 106 5370ft 103kts
30-Dec-20 18:36 35.061261 -118.210060 95 4576ft 100kts
30-Dec-20 18:37 35.058875 -118.176352 89 3812ft 96kts
30-Dec-20 18:38 35.045157 -118.151526 141 3894ft 97kts
30-Dec-20 18:39 35.024774 -118.130691 139 4151ft 80kts
30-Dec-20 18:40 35.024668 -118.112480 348 3771ft 60kts
30-Dec-20 18:41 35.038902 -118.123815 314 3024ft 64kts
30-Dec-20 18:42 35.050281 -118.137593 312 2704ft 33kts
30-Dec-20 18:43 35.056392 -118.145020 313 2737ft 27kts
30-Dec-20 18:44 35.057581 -118.147935 269 2747ft 0kts
30-Dec-20 18:45 35.057581 -118.147935 269 2747ft 0kts
30-Dec-20 18:46 35.057562 -118.149504 267 2750ft 14kts
30-Dec-20 18:47 35.057030 -118.149879 173 2750ft 0kts
30-Dec-20 18:48 35.057030 -118.149879 173 2750ft 0kts

Navigation Log

Ident Type
Flight plan parsing failed, navigation log unavailable